sensor_id;sensor_type;location;lat;lon;timestamp;P1;durP1;ratioP1;P2;durP2;ratioP2
36815;SDS011;22760;51.910;4.474;2022-08-11T00:01:11;3.15;;;2.10;;
36815;SDS011;22760;51.910;4.474;2022-08-11T00:03:45;8.95;;;2.67;;
36815;SDS011;22760;51.910;4.474;2022-08-11T00:06:13;8.45;;;2.28;;
36815;SDS011;22760;51.910;4.474;2022-08-11T00:08:48;3.63;;;2.28;;
36815;SDS011;22760;51.910;4.474;2022-08-11T00:11:15;6.45;;;2.53;;
36815;SDS011;22760;51.910;4.474;2022-08-11T00:13:45;11.40;;;2.53;;
36815;SDS011;22760;51.910;4.474;2022-08-11T00:16:14;5.23;;;2.40;;
36815;SDS011;22760;51.910;4.474;2022-08-11T00:18:43;4.25;;;1.95;;
36815;SDS011;22760;51.910;4.474;2022-08-11T00:21:12;4.35;;;2.17;;
36815;SDS011;22760;51.910;4.474;2022-08-11T00:23:40;4.35;;;2.03;;
36815;SDS011;22760;51.910;4.474;2022-08-11T00:26:09;5.07;;;2.40;;
36815;SDS011;22760;51.910;4.474;2022-08-11T00:28:36;5.20;;;2.58;;
36815;SDS011;22760;51.910;4.474;2022-08-11T00:31:06;4.05;;;2.13;;
36815;SDS011;22760;51.910;4.474;2022-08-11T00:33:35;6.43;;;2.50;;
36815;SDS011;22760;51.910;4.474;2022-08-11T00:36:03;3.55;;;2.30;;
36815;SDS011;22760;51.910;4.474;2022-08-11T00:38:32;3.42;;;2.40;;
36815;SDS011;22760;51.910;4.474;2022-08-11T00:41:03;3.17;;;2.00;;
36815;SDS011;22760;51.910;4.474;2022-08-11T00:46:41;4.78;;;2.13;;
36815;SDS011;22760;51.910;4.474;2022-08-11T00:51:59;3.20;;;2.03;;
36815;SDS011;22760;51.910;4.474;2022-08-11T00:54:52;8.20;;;3.03;;
36815;SDS011;22760;51.910;4.474;2022-08-11T01:01:01;5.28;;;2.55;;
36815;SDS011;22760;51.910;4.474;2022-08-11T01:03:42;3.95;;;2.20;;
36815;SDS011;22760;51.910;4.474;2022-08-11T01:09:34;5.13;;;2.13;;
36815;SDS011;22760;51.910;4.474;2022-08-11T01:12:20;4.57;;;2.63;;
36815;SDS011;22760;51.910;4.474;2022-08-11T01:21:16;4.68;;;2.65;;
36815;SDS011;22760;51.910;4.474;2022-08-11T01:27:21;9.20;;;2.55;;
36815;SDS011;22760;51.910;4.474;2022-08-11T01:30:07;6.65;;;2.83;;
36815;SDS011;22760;51.910;4.474;2022-08-11T01:36:04;5.10;;;2.00;;
36815;SDS011;22760;51.910;4.474;2022-08-11T01:42:03;6.07;;;2.30;;
36815;SDS011;22760;51.910;4.474;2022-08-11T01:45:04;3.92;;;2.40;;
36815;SDS011;22760;51.910;4.474;2022-08-11T01:47:38;5.60;;;2.55;;
36815;SDS011;22760;51.910;4.474;2022-08-11T01:50:20;4.93;;;2.47;;
36815;SDS011;22760;51.910;4.474;2022-08-11T01:53:03;4.43;;;2.30;;
36815;SDS011;22760;51.910;4.474;2022-08-11T01:55:39;6.75;;;2.47;;
36815;SDS011;22760;51.910;4.474;2022-08-11T01:58:28;6.25;;;2.53;;
36815;SDS011;22760;51.910;4.474;2022-08-11T02:01:01;7.10;;;2.78;;
36815;SDS011;22760;51.910;4.474;2022-08-11T02:03:49;4.65;;;2.60;;
36815;SDS011;22760;51.910;4.474;2022-08-11T02:06:25;8.30;;;2.35;;
36815;SDS011;22760;51.910;4.474;2022-08-11T02:09:23;6.28;;;2.40;;
36815;SDS011;22760;51.910;4.474;2022-08-11T02:11:58;6.35;;;2.30;;
36815;SDS011;22760;51.910;4.474;2022-08-11T02:14:36;3.58;;;2.22;;
36815;SDS011;22760;51.910;4.474;2022-08-11T02:17:11;9.48;;;2.63;;
36815;SDS011;22760;51.910;4.474;2022-08-11T02:19:46;13.93;;;2.60;;
36815;SDS011;22760;51.910;4.474;2022-08-11T02:22:48;5.80;;;2.30;;
36815;SDS011;22760;51.910;4.474;2022-08-11T02:25:48;5.78;;;2.78;;
36815;SDS011;22760;51.910;4.474;2022-08-11T02:28:21;2.40;;;2.13;;
36815;SDS011;22760;51.910;4.474;2022-08-11T02:30:57;7.30;;;2.67;;
36815;SDS011;22760;51.910;4.474;2022-08-11T02:33:45;7.00;;;2.55;;
36815;SDS011;22760;51.910;4.474;2022-08-11T02:36:23;6.38;;;2.85;;
36815;SDS011;22760;51.910;4.474;2022-08-11T02:38:58;8.00;;;2.83;;
36815;SDS011;22760;51.910;4.474;2022-08-11T02:41:30;2.90;;;2.03;;
36815;SDS011;22760;51.910;4.474;2022-08-11T02:44:27;8.85;;;2.40;;
36815;SDS011;22760;51.910;4.474;2022-08-11T02:47:02;5.68;;;2.05;;
36815;SDS011;22760;51.910;4.474;2022-08-11T02:49:40;3.85;;;2.30;;
36815;SDS011;22760;51.910;4.474;2022-08-11T02:52:19;5.55;;;3.17;;
36815;SDS011;22760;51.910;4.474;2022-08-11T02:54:52;5.75;;;2.30;;
36815;SDS011;22760;51.910;4.474;2022-08-11T02:57:37;7.70;;;2.50;;
36815;SDS011;22760;51.910;4.474;2022-08-11T03:00:09;3.22;;;1.95;;
36815;SDS011;22760;51.910;4.474;2022-08-11T03:02:42;4.60;;;2.00;;
36815;SDS011;22760;51.910;4.474;2022-08-11T03:05:26;4.60;;;2.10;;
36815;SDS011;22760;51.910;4.474;2022-08-11T03:08:11;5.80;;;2.40;;
36815;SDS011;22760;51.910;4.474;2022-08-11T03:10:46;2.53;;;1.88;;
36815;SDS011;22760;51.910;4.474;2022-08-11T03:13:34;9.75;;;2.50;;
36815;SDS011;22760;51.910;4.474;2022-08-11T03:16:34;5.25;;;2.35;;
36815;SDS011;22760;51.910;4.474;2022-08-11T03:19:11;4.00;;;2.25;;
36815;SDS011;22760;51.910;4.474;2022-08-11T03:21:45;3.53;;;2.17;;
36815;SDS011;22760;51.910;4.474;2022-08-11T03:24:20;8.20;;;2.40;;
36815;SDS011;22760;51.910;4.474;2022-08-11T03:26:55;4.72;;;2.28;;
36815;SDS011;22760;51.910;4.474;2022-08-11T03:29:34;6.22;;;2.20;;
36815;SDS011;22760;51.910;4.474;2022-08-11T03:32:06;5.40;;;2.17;;
36815;SDS011;22760;51.910;4.474;2022-08-11T03:34:45;5.72;;;2.47;;
36815;SDS011;22760;51.910;4.474;2022-08-11T03:37:18;6.07;;;2.42;;
36815;SDS011;22760;51.910;4.474;2022-08-11T03:40:15;4.13;;;2.83;;
36815;SDS011;22760;51.910;4.474;2022-08-11T03:43:10;2.97;;;2.08;;
36815;SDS011;22760;51.910;4.474;2022-08-11T03:45:52;4.60;;;2.60;;
36815;SDS011;22760;51.910;4.474;2022-08-11T03:48:27;6.05;;;2.40;;
36815;SDS011;22760;51.910;4.474;2022-08-11T03:51:05;4.50;;;2.17;;
36815;SDS011;22760;51.910;4.474;2022-08-11T03:53:53;9.10;;;2.90;;
36815;SDS011;22760;51.910;4.474;2022-08-11T03:56:43;4.88;;;2.22;;
36815;SDS011;22760;51.910;4.474;2022-08-11T04:06:11;5.35;;;2.60;;
36815;SDS011;22760;51.910;4.474;2022-08-11T04:09:15;3.30;;;2.42;;
36815;SDS011;22760;51.910;4.474;2022-08-11T04:12:13;6.05;;;2.80;;
36815;SDS011;22760;51.910;4.474;2022-08-11T04:15:10;5.85;;;2.90;;
36815;SDS011;22760;51.910;4.474;2022-08-11T04:18:14;3.40;;;2.60;;
36815;SDS011;22760;51.910;4.474;2022-08-11T04:27:05;3.72;;;2.60;;
36815;SDS011;22760;51.910;4.474;2022-08-11T04:29:55;5.38;;;2.70;;
36815;SDS011;22760;51.910;4.474;2022-08-11T04:32:45;4.28;;;2.67;;
36815;SDS011;22760;51.910;4.474;2022-08-11T04:35:31;5.82;;;3.58;;
36815;SDS011;22760;51.910;4.474;2022-08-11T04:38:21;5.55;;;2.65;;
36815;SDS011;22760;51.910;4.474;2022-08-11T04:47:49;6.90;;;2.50;;
36815;SDS011;22760;51.910;4.474;2022-08-11T04:50:57;5.97;;;2.80;;
36815;SDS011;22760;51.910;4.474;2022-08-11T04:53:54;4.00;;;2.80;;
36815;SDS011;22760;51.910;4.474;2022-08-11T04:56:43;3.70;;;2.55;;
36815;SDS011;22760;51.910;4.474;2022-08-11T04:59:39;5.35;;;2.80;;
36815;SDS011;22760;51.910;4.474;2022-08-11T05:06:00;4.75;;;3.08;;
36815;SDS011;22760;51.910;4.474;2022-08-11T05:08:48;5.78;;;3.22;;
36815;SDS011;22760;51.910;4.474;2022-08-11T05:11:39;3.88;;;2.53;;
36815;SDS011;22760;51.910;4.474;2022-08-11T05:14:27;4.38;;;2.70;;
36815;SDS011;22760;51.910;4.474;2022-08-11T05:17:14;6.15;;;3.22;;
36815;SDS011;22760;51.910;4.474;2022-08-11T05:20:08;7.07;;;2.90;;
36815;SDS011;22760;51.910;4.474;2022-08-11T05:22:54;4.65;;;3.10;;
36815;SDS011;22760;51.910;4.474;2022-08-11T05:25:44;11.07;;;3.30;;
36815;SDS011;22760;51.910;4.474;2022-08-11T05:28:33;7.43;;;3.10;;
36815;SDS011;22760;51.910;4.474;2022-08-11T05:31:21;6.15;;;3.25;;
36815;SDS011;22760;51.910;4.474;2022-08-11T05:34:10;6.43;;;2.95;;
36815;SDS011;22760;51.910;4.474;2022-08-11T05:37:01;5.75;;;3.13;;
36815;SDS011;22760;51.910;4.474;2022-08-11T05:39:35;5.78;;;3.00;;
36815;SDS011;22760;51.910;4.474;2022-08-11T05:42:26;4.53;;;3.03;;
36815;SDS011;22760;51.910;4.474;2022-08-11T05:45:12;5.60;;;2.88;;
36815;SDS011;22760;51.910;4.474;2022-08-11T05:47:58;6.03;;;3.15;;
36815;SDS011;22760;51.910;4.474;2022-08-11T05:50:49;5.13;;;2.75;;
36815;SDS011;22760;51.910;4.474;2022-08-11T05:53:34;3.72;;;2.78;;
36815;SDS011;22760;51.910;4.474;2022-08-11T05:56:29;5.35;;;3.53;;
36815;SDS011;22760;51.910;4.474;2022-08-11T05:58:58;5.93;;;3.05;;
36815;SDS011;22760;51.910;4.474;2022-08-11T06:01:27;5.10;;;3.20;;
36815;SDS011;22760;51.910;4.474;2022-08-11T06:03:58;5.75;;;3.70;;
36815;SDS011;22760;51.910;4.474;2022-08-11T06:06:45;7.13;;;3.10;;
36815;SDS011;22760;51.910;4.474;2022-08-11T06:09:28;6.28;;;2.80;;
36815;SDS011;22760;51.910;4.474;2022-08-11T06:12:00;6.32;;;3.17;;
36815;SDS011;22760;51.910;4.474;2022-08-11T06:14:29;6.68;;;3.22;;
36815;SDS011;22760;51.910;4.474;2022-08-11T06:16:58;6.70;;;3.65;;
36815;SDS011;22760;51.910;4.474;2022-08-11T06:19:31;5.18;;;3.30;;
36815;SDS011;22760;51.910;4.474;2022-08-11T06:22:00;6.10;;;3.00;;
36815;SDS011;22760;51.910;4.474;2022-08-11T06:24:28;6.28;;;2.85;;
36815;SDS011;22760;51.910;4.474;2022-08-11T06:26:56;4.50;;;3.13;;
36815;SDS011;22760;51.910;4.474;2022-08-11T06:29:25;8.77;;;3.17;;
36815;SDS011;22760;51.910;4.474;2022-08-11T06:31:54;5.15;;;2.60;;
36815;SDS011;22760;51.910;4.474;2022-08-11T06:34:34;6.10;;;3.10;;
36815;SDS011;22760;51.910;4.474;2022-08-11T06:37:12;4.65;;;2.45;;
36815;SDS011;22760;51.910;4.474;2022-08-11T06:39:46;5.60;;;2.55;;
36815;SDS011;22760;51.910;4.474;2022-08-11T06:42:37;5.03;;;3.13;;
36815;SDS011;22760;51.910;4.474;2022-08-11T06:45:18;5.95;;;3.25;;
36815;SDS011;22760;51.910;4.474;2022-08-11T06:47:51;7.38;;;3.63;;
36815;SDS011;22760;51.910;4.474;2022-08-11T06:50:20;8.30;;;3.40;;
36815;SDS011;22760;51.910;4.474;2022-08-11T06:53:06;6.18;;;2.88;;
36815;SDS011;22760;51.910;4.474;2022-08-11T06:55:37;4.60;;;3.00;;
36815;SDS011;22760;51.910;4.474;2022-08-11T06:58:25;6.10;;;3.00;;
36815;SDS011;22760;51.910;4.474;2022-08-11T07:01:14;4.55;;;3.35;;
36815;SDS011;22760;51.910;4.474;2022-08-11T07:03:47;8.13;;;3.85;;
36815;SDS011;22760;51.910;4.474;2022-08-11T07:06:27;5.95;;;2.95;;
36815;SDS011;22760;51.910;4.474;2022-08-11T07:09:25;5.05;;;3.40;;
36815;SDS011;22760;51.910;4.474;2022-08-11T07:12:33;7.15;;;3.15;;
36815;SDS011;22760;51.910;4.474;2022-08-11T07:15:22;6.35;;;3.47;;
36815;SDS011;22760;51.910;4.474;2022-08-11T07:18:11;7.63;;;3.55;;
36815;SDS011;22760;51.910;4.474;2022-08-11T07:21:10;7.72;;;3.50;;
36815;SDS011;22760;51.910;4.474;2022-08-11T07:23:57;6.32;;;2.72;;
36815;SDS011;22760;51.910;4.474;2022-08-11T07:26:47;10.30;;;3.22;;
36815;SDS011;22760;51.910;4.474;2022-08-11T07:29:35;4.78;;;3.20;;
36815;SDS011;22760;51.910;4.474;2022-08-11T07:32:12;8.88;;;3.22;;
36815;SDS011;22760;51.910;4.474;2022-08-11T07:34:46;8.07;;;3.47;;
36815;SDS011;22760;51.910;4.474;2022-08-11T07:37:17;7.30;;;3.30;;
36815;SDS011;22760;51.910;4.474;2022-08-11T07:39:46;7.43;;;4.03;;
36815;SDS011;22760;51.910;4.474;2022-08-11T07:42:14;4.20;;;3.30;;
36815;SDS011;22760;51.910;4.474;2022-08-11T07:44:45;15.07;;;3.90;;
36815;SDS011;22760;51.910;4.474;2022-08-11T07:47:30;6.72;;;3.55;;
36815;SDS011;22760;51.910;4.474;2022-08-11T07:50:19;11.57;;;3.80;;
36815;SDS011;22760;51.910;4.474;2022-08-11T07:53:04;7.72;;;3.58;;
36815;SDS011;22760;51.910;4.474;2022-08-11T07:55:31;8.05;;;4.05;;
36815;SDS011;22760;51.910;4.474;2022-08-11T07:57:59;7.63;;;3.25;;
36815;SDS011;22760;51.910;4.474;2022-08-11T08:00:45;8.57;;;4.40;;
36815;SDS011;22760;51.910;4.474;2022-08-11T08:03:31;5.65;;;3.20;;
36815;SDS011;22760;51.910;4.474;2022-08-11T08:06:18;11.43;;;3.30;;
36815;SDS011;22760;51.910;4.474;2022-08-11T08:09:03;8.25;;;3.30;;
36815;SDS011;22760;51.910;4.474;2022-08-11T08:11:49;9.00;;;3.30;;
36815;SDS011;22760;51.910;4.474;2022-08-11T08:14:34;11.02;;;3.53;;
36815;SDS011;22760;51.910;4.474;2022-08-11T08:17:20;10.73;;;3.63;;
36815;SDS011;22760;51.910;4.474;2022-08-11T08:20:05;9.07;;;2.95;;
36815;SDS011;22760;51.910;4.474;2022-08-11T08:22:37;4.05;;;2.65;;
36815;SDS011;22760;51.910;4.474;2022-08-11T08:25:05;5.50;;;2.72;;
36815;SDS011;22760;51.910;4.474;2022-08-11T08:27:33;5.80;;;3.03;;
36815;SDS011;22760;51.910;4.474;2022-08-11T08:30:02;7.50;;;2.80;;
36815;SDS011;22760;51.910;4.474;2022-08-11T08:32:48;6.03;;;2.58;;
36815;SDS011;22760;51.910;4.474;2022-08-11T08:35:15;8.05;;;2.97;;
36815;SDS011;22760;51.910;4.474;2022-08-11T08:37:45;6.93;;;2.83;;
36815;SDS011;22760;51.910;4.474;2022-08-11T08:40:12;5.85;;;2.60;;
36815;SDS011;22760;51.910;4.474;2022-08-11T08:42:40;4.00;;;2.40;;
36815;SDS011;22760;51.910;4.474;2022-08-11T08:45:15;4.22;;;2.63;;
36815;SDS011;22760;51.910;4.474;2022-08-11T08:47:45;4.55;;;2.42;;
36815;SDS011;22760;51.910;4.474;2022-08-11T08:50:14;3.57;;;2.20;;
36815;SDS011;22760;51.910;4.474;2022-08-11T08:52:46;5.45;;;2.53;;
36815;SDS011;22760;51.910;4.474;2022-08-11T08:55:16;5.38;;;2.72;;
36815;SDS011;22760;51.910;4.474;2022-08-11T08:57:44;9.50;;;3.13;;
36815;SDS011;22760;51.910;4.474;2022-08-11T09:00:14;5.25;;;2.80;;
36815;SDS011;22760;51.910;4.474;2022-08-11T09:02:42;7.32;;;2.45;;
36815;SDS011;22760;51.910;4.474;2022-08-11T09:05:09;6.57;;;2.72;;
36815;SDS011;22760;51.910;4.474;2022-08-11T09:07:37;7.07;;;2.65;;
36815;SDS011;22760;51.910;4.474;2022-08-11T09:10:06;5.43;;;2.50;;
36815;SDS011;22760;51.910;4.474;2022-08-11T09:12:35;5.03;;;2.72;;
36815;SDS011;22760;51.910;4.474;2022-08-11T09:15:06;6.10;;;2.30;;
36815;SDS011;22760;51.910;4.474;2022-08-11T09:17:36;6.47;;;2.50;;
36815;SDS011;22760;51.910;4.474;2022-08-11T09:20:06;5.18;;;2.78;;
36815;SDS011;22760;51.910;4.474;2022-08-11T09:22:35;6.10;;;2.50;;
36815;SDS011;22760;51.910;4.474;2022-08-11T09:25:24;11.88;;;3.38;;
36815;SDS011;22760;51.910;4.474;2022-08-11T09:28:10;4.63;;;2.63;;
36815;SDS011;22760;51.910;4.474;2022-08-11T09:30:40;3.45;;;2.50;;
36815;SDS011;22760;51.910;4.474;2022-08-11T09:33:08;3.85;;;2.30;;
36815;SDS011;22760;51.910;4.474;2022-08-11T09:35:37;5.68;;;2.67;;
36815;SDS011;22760;51.910;4.474;2022-08-11T09:38:08;10.70;;;2.67;;
36815;SDS011;22760;51.910;4.474;2022-08-11T09:40:57;5.63;;;2.65;;
36815;SDS011;22760;51.910;4.474;2022-08-11T09:43:25;4.95;;;2.60;;
36815;SDS011;22760;51.910;4.474;2022-08-11T09:46:20;5.55;;;2.78;;
36815;SDS011;22760;51.910;4.474;2022-08-11T09:48:51;7.15;;;2.60;;
36815;SDS011;22760;51.910;4.474;2022-08-11T09:51:21;3.78;;;2.55;;
36815;SDS011;22760;51.910;4.474;2022-08-11T09:53:48;11.73;;;2.60;;
36815;SDS011;22760;51.910;4.474;2022-08-11T09:56:22;6.65;;;2.53;;
36815;SDS011;22760;51.910;4.474;2022-08-11T09:59:07;2.90;;;2.30;;
36815;SDS011;22760;51.910;4.474;2022-08-11T10:01:36;5.05;;;2.30;;
36815;SDS011;22760;51.910;4.474;2022-08-11T10:04:07;10.10;;;2.58;;
36815;SDS011;22760;51.910;4.474;2022-08-11T10:06:39;7.35;;;2.50;;
36815;SDS011;22760;51.910;4.474;2022-08-11T10:09:26;7.00;;;2.17;;
36815;SDS011;22760;51.910;4.474;2022-08-11T10:11:56;6.50;;;2.33;;
36815;SDS011;22760;51.910;4.474;2022-08-11T10:14:25;10.60;;;2.83;;
36815;SDS011;22760;51.910;4.474;2022-08-11T10:17:10;4.30;;;1.98;;
36815;SDS011;22760;51.910;4.474;2022-08-11T10:19:40;6.72;;;2.15;;
36815;SDS011;22760;51.910;4.474;2022-08-11T10:22:08;8.38;;;2.30;;
36815;SDS011;22760;51.910;4.474;2022-08-11T10:24:54;9.02;;;2.83;;
36815;SDS011;22760;51.910;4.474;2022-08-11T10:27:41;6.25;;;2.25;;
36815;SDS011;22760;51.910;4.474;2022-08-11T10:30:09;5.00;;;2.08;;
36815;SDS011;22760;51.910;4.474;2022-08-11T10:32:54;4.65;;;2.22;;
36815;SDS011;22760;51.910;4.474;2022-08-11T10:35:40;5.18;;;2.35;;
36815;SDS011;22760;51.910;4.474;2022-08-11T10:38:09;5.70;;;2.20;;
36815;SDS011;22760;51.910;4.474;2022-08-11T10:40:39;2.90;;;2.20;;
36815;SDS011;22760;51.910;4.474;2022-08-11T10:43:11;4.65;;;1.90;;
36815;SDS011;22760;51.910;4.474;2022-08-11T10:45:40;6.35;;;2.08;;
36815;SDS011;22760;51.910;4.474;2022-08-11T10:48:27;6.15;;;2.75;;
36815;SDS011;22760;51.910;4.474;2022-08-11T10:50:56;4.38;;;2.25;;
36815;SDS011;22760;51.910;4.474;2022-08-11T10:53:40;6.07;;;2.20;;
36815;SDS011;22760;51.910;4.474;2022-08-11T10:56:26;4.35;;;2.45;;
36815;SDS011;22760;51.910;4.474;2022-08-11T10:59:14;3.65;;;2.72;;
36815;SDS011;22760;51.910;4.474;2022-08-11T11:01:43;5.22;;;2.10;;
36815;SDS011;22760;51.910;4.474;2022-08-11T11:04:11;3.28;;;2.03;;
36815;SDS011;22760;51.910;4.474;2022-08-11T11:06:45;6.32;;;2.08;;
36815;SDS011;22760;51.910;4.474;2022-08-11T11:09:17;5.35;;;1.80;;
36815;SDS011;22760;51.910;4.474;2022-08-11T11:11:48;6.90;;;2.00;;
36815;SDS011;22760;51.910;4.474;2022-08-11T11:14:35;4.05;;;2.25;;
36815;SDS011;22760;51.910;4.474;2022-08-11T11:17:22;4.15;;;2.10;;
36815;SDS011;22760;51.910;4.474;2022-08-11T11:20:11;4.20;;;2.58;;
36815;SDS011;22760;51.910;4.474;2022-08-11T11:22:41;10.82;;;2.33;;
36815;SDS011;22760;51.910;4.474;2022-08-11T11:27:47;6.13;;;2.05;;
36815;SDS011;22760;51.910;4.474;2022-08-11T11:30:30;4.47;;;2.30;;
36815;SDS011;22760;51.910;4.474;2022-08-11T11:33:03;6.68;;;2.10;;
36815;SDS011;22760;51.910;4.474;2022-08-11T11:35:38;5.18;;;2.30;;
36815;SDS011;22760;51.910;4.474;2022-08-11T11:38:14;5.43;;;1.95;;
36815;SDS011;22760;51.910;4.474;2022-08-11T11:40:42;8.02;;;2.05;;
36815;SDS011;22760;51.910;4.474;2022-08-11T11:43:29;7.32;;;2.33;;
36815;SDS011;22760;51.910;4.474;2022-08-11T11:46:01;4.25;;;1.75;;
36815;SDS011;22760;51.910;4.474;2022-08-11T11:48:30;5.90;;;1.85;;
36815;SDS011;22760;51.910;4.474;2022-08-11T11:50:57;7.93;;;2.05;;
36815;SDS011;22760;51.910;4.474;2022-08-11T11:53:25;3.90;;;1.83;;
36815;SDS011;22760;51.910;4.474;2022-08-11T11:55:52;5.68;;;2.22;;
36815;SDS011;22760;51.910;4.474;2022-08-11T11:58:19;6.75;;;2.17;;
36815;SDS011;22760;51.910;4.474;2022-08-11T12:01:05;2.42;;;1.85;;
36815;SDS011;22760;51.910;4.474;2022-08-11T12:03:44;9.98;;;2.00;;
36815;SDS011;22760;51.910;4.474;2022-08-11T12:06:12;3.55;;;1.88;;
36815;SDS011;22760;51.910;4.474;2022-08-11T12:08:40;3.08;;;2.03;;
36815;SDS011;22760;51.910;4.474;2022-08-11T12:11:09;7.13;;;1.75;;
36815;SDS011;22760;51.910;4.474;2022-08-11T12:13:55;2.08;;;1.50;;
36815;SDS011;22760;51.910;4.474;2022-08-11T12:16:26;3.58;;;1.80;;
36815;SDS011;22760;51.910;4.474;2022-08-11T12:18:54;6.53;;;2.05;;
36815;SDS011;22760;51.910;4.474;2022-08-11T12:21:24;2.47;;;1.83;;
36815;SDS011;22760;51.910;4.474;2022-08-11T12:23:53;5.63;;;1.80;;
36815;SDS011;22760;51.910;4.474;2022-08-11T12:26:39;4.20;;;2.20;;
36815;SDS011;22760;51.910;4.474;2022-08-11T12:29:24;4.38;;;2.13;;
36815;SDS011;22760;51.910;4.474;2022-08-11T12:31:55;4.05;;;1.77;;
36815;SDS011;22760;51.910;4.474;2022-08-11T12:34:25;4.80;;;1.80;;
36815;SDS011;22760;51.910;4.474;2022-08-11T12:36:55;4.82;;;2.03;;
36815;SDS011;22760;51.910;4.474;2022-08-11T12:39:24;7.03;;;1.87;;
36815;SDS011;22760;51.910;4.474;2022-08-11T12:42:08;2.65;;;1.92;;
36815;SDS011;22760;51.910;4.474;2022-08-11T12:44:53;4.60;;;1.60;;
36815;SDS011;22760;51.910;4.474;2022-08-11T12:47:41;4.05;;;1.70;;
36815;SDS011;22760;51.910;4.474;2022-08-11T12:50:30;4.53;;;1.90;;
36815;SDS011;22760;51.910;4.474;2022-08-11T12:53:16;6.38;;;1.80;;
36815;SDS011;22760;51.910;4.474;2022-08-11T12:55:46;4.90;;;1.98;;
36815;SDS011;22760;51.910;4.474;2022-08-11T12:58:32;6.57;;;2.05;;
36815;SDS011;22760;51.910;4.474;2022-08-11T13:00:59;3.22;;;1.73;;
36815;SDS011;22760;51.910;4.474;2022-08-11T13:03:45;5.40;;;1.50;;
36815;SDS011;22760;51.910;4.474;2022-08-11T13:06:29;5.28;;;1.63;;
36815;SDS011;22760;51.910;4.474;2022-08-11T13:08:58;3.15;;;1.80;;
36815;SDS011;22760;51.910;4.474;2022-08-11T13:11:25;8.13;;;2.33;;
36815;SDS011;22760;51.910;4.474;2022-08-11T13:14:10;4.03;;;1.60;;
36815;SDS011;22760;51.910;4.474;2022-08-11T13:16:38;3.88;;;1.90;;
36815;SDS011;22760;51.910;4.474;2022-08-11T13:19:20;2.33;;;1.77;;
36815;SDS011;22760;51.910;4.474;2022-08-11T13:21:49;6.25;;;1.83;;
36815;SDS011;22760;51.910;4.474;2022-08-11T13:24:17;5.07;;;1.80;;
36815;SDS011;22760;51.910;4.474;2022-08-11T13:26:45;5.32;;;1.80;;
36815;SDS011;22760;51.910;4.474;2022-08-11T13:29:14;6.20;;;1.95;;
36815;SDS011;22760;51.910;4.474;2022-08-11T13:31:45;5.80;;;1.70;;
36815;SDS011;22760;51.910;4.474;2022-08-11T13:34:14;5.97;;;2.72;;
36815;SDS011;22760;51.910;4.474;2022-08-11T13:36:43;4.70;;;1.58;;
36815;SDS011;22760;51.910;4.474;2022-08-11T13:39:10;7.30;;;1.77;;
36815;SDS011;22760;51.910;4.474;2022-08-11T13:41:39;3.78;;;1.95;;
36815;SDS011;22760;51.910;4.474;2022-08-11T13:44:09;2.25;;;1.60;;
36815;SDS011;22760;51.910;4.474;2022-08-11T13:46:38;5.00;;;2.03;;
36815;SDS011;22760;51.910;4.474;2022-08-11T13:49:07;2.85;;;1.77;;
36815;SDS011;22760;51.910;4.474;2022-08-11T13:51:35;2.78;;;2.10;;
36815;SDS011;22760;51.910;4.474;2022-08-11T13:54:05;5.18;;;1.60;;
36815;SDS011;22760;51.910;4.474;2022-08-11T13:56:34;2.22;;;1.67;;
36815;SDS011;22760;51.910;4.474;2022-08-11T13:59:04;3.30;;;1.45;;
36815;SDS011;22760;51.910;4.474;2022-08-11T14:01:34;2.90;;;1.70;;
36815;SDS011;22760;51.910;4.474;2022-08-11T14:06:33;2.55;;;1.55;;
36815;SDS011;22760;51.910;4.474;2022-08-11T14:09:02;3.22;;;1.80;;
36815;SDS011;22760;51.910;4.474;2022-08-11T14:11:33;2.83;;;1.70;;
36815;SDS011;22760;51.910;4.474;2022-08-11T14:14:20;3.67;;;1.98;;
36815;SDS011;22760;51.910;4.474;2022-08-11T14:16:51;4.10;;;2.08;;
36815;SDS011;22760;51.910;4.474;2022-08-11T14:19:22;4.80;;;2.00;;
36815;SDS011;22760;51.910;4.474;2022-08-11T14:24:36;4.03;;;1.80;;
36815;SDS011;22760;51.910;4.474;2022-08-11T14:27:05;2.13;;;1.70;;
36815;SDS011;22760;51.910;4.474;2022-08-11T14:29:34;5.30;;;1.88;;
36815;SDS011;22760;51.910;4.474;2022-08-11T14:32:03;5.07;;;2.22;;
36815;SDS011;22760;51.910;4.474;2022-08-11T14:34:32;6.60;;;1.98;;
36815;SDS011;22760;51.910;4.474;2022-08-11T14:37:01;3.60;;;2.15;;
36815;SDS011;22760;51.910;4.474;2022-08-11T14:39:33;4.32;;;1.60;;
36815;SDS011;22760;51.910;4.474;2022-08-11T14:42:05;4.95;;;1.80;;
36815;SDS011;22760;51.910;4.474;2022-08-11T14:44:51;9.95;;;1.90;;
36815;SDS011;22760;51.910;4.474;2022-08-11T14:47:39;3.95;;;1.98;;
36815;SDS011;22760;51.910;4.474;2022-08-11T14:50:10;5.60;;;1.77;;
36815;SDS011;22760;51.910;4.474;2022-08-11T14:52:44;5.28;;;1.42;;
36815;SDS011;22760;51.910;4.474;2022-08-11T14:55:15;2.85;;;1.63;;
36815;SDS011;22760;51.910;4.474;2022-08-11T14:58:02;4.93;;;1.80;;
36815;SDS011;22760;51.910;4.474;2022-08-11T15:00:30;6.38;;;2.05;;
36815;SDS011;22760;51.910;4.474;2022-08-11T15:02:59;8.80;;;1.60;;
36815;SDS011;22760;51.910;4.474;2022-08-11T15:05:35;2.53;;;1.70;;
36815;SDS011;22760;51.910;4.474;2022-08-11T15:08:13;4.00;;;2.30;;
36815;SDS011;22760;51.910;4.474;2022-08-11T15:10:41;1.70;;;1.60;;
36815;SDS011;22760;51.910;4.474;2022-08-11T15:13:10;9.38;;;2.20;;
36815;SDS011;22760;51.910;4.474;2022-08-11T15:15:40;4.43;;;2.15;;
36815;SDS011;22760;51.910;4.474;2022-08-11T15:18:25;4.05;;;2.03;;
36815;SDS011;22760;51.910;4.474;2022-08-11T15:20:52;5.10;;;1.65;;
36815;SDS011;22760;51.910;4.474;2022-08-11T15:23:37;5.30;;;1.90;;
36815;SDS011;22760;51.910;4.474;2022-08-11T15:26:23;8.70;;;2.33;;
36815;SDS011;22760;51.910;4.474;2022-08-11T15:29:11;3.63;;;1.98;;
36815;SDS011;22760;51.910;4.474;2022-08-11T15:31:58;2.20;;;1.92;;
36815;SDS011;22760;51.910;4.474;2022-08-11T15:34:43;5.43;;;2.15;;
36815;SDS011;22760;51.910;4.474;2022-08-11T15:37:33;3.60;;;1.58;;
36815;SDS011;22760;51.910;4.474;2022-08-11T15:40:02;3.80;;;1.90;;
36815;SDS011;22760;51.910;4.474;2022-08-11T15:42:56;4.93;;;1.77;;
36815;SDS011;22760;51.910;4.474;2022-08-11T15:45:45;5.55;;;2.20;;
36815;SDS011;22760;51.910;4.474;2022-08-11T15:48:19;2.35;;;1.70;;
36815;SDS011;22760;51.910;4.474;2022-08-11T15:50:55;6.90;;;1.90;;
36815;SDS011;22760;51.910;4.474;2022-08-11T15:53:26;5.72;;;1.92;;
36815;SDS011;22760;51.910;4.474;2022-08-11T15:55:57;2.63;;;1.73;;
36815;SDS011;22760;51.910;4.474;2022-08-11T15:58:26;5.63;;;1.88;;
36815;SDS011;22760;51.910;4.474;2022-08-11T16:01:16;5.85;;;1.90;;
36815;SDS011;22760;51.910;4.474;2022-08-11T16:04:17;7.50;;;1.80;;
36815;SDS011;22760;51.910;4.474;2022-08-11T16:06:50;5.72;;;1.80;;
36815;SDS011;22760;51.910;4.474;2022-08-11T16:09:26;3.25;;;2.03;;
36815;SDS011;22760;51.910;4.474;2022-08-11T16:11:56;6.78;;;1.90;;
36815;SDS011;22760;51.910;4.474;2022-08-11T16:14:27;2.30;;;1.77;;
36815;SDS011;22760;51.910;4.474;2022-08-11T16:17:15;4.18;;;1.90;;
36815;SDS011;22760;51.910;4.474;2022-08-11T16:19:43;6.05;;;1.80;;
36815;SDS011;22760;51.910;4.474;2022-08-11T16:22:13;3.60;;;2.03;;
36815;SDS011;22760;51.910;4.474;2022-08-11T16:24:49;2.78;;;1.95;;
36815;SDS011;22760;51.910;4.474;2022-08-11T16:27:17;3.92;;;1.70;;
36815;SDS011;22760;51.910;4.474;2022-08-11T16:29:45;3.42;;;1.83;;
36815;SDS011;22760;51.910;4.474;2022-08-11T16:32:18;6.47;;;1.60;;
36815;SDS011;22760;51.910;4.474;2022-08-11T16:34:51;4.80;;;1.73;;
36815;SDS011;22760;51.910;4.474;2022-08-11T16:37:35;5.55;;;1.65;;
36815;SDS011;22760;51.910;4.474;2022-08-11T16:40:20;3.97;;;1.77;;
36815;SDS011;22760;51.910;4.474;2022-08-11T16:42:48;2.70;;;1.52;;
36815;SDS011;22760;51.910;4.474;2022-08-11T16:45:33;4.00;;;2.47;;
36815;SDS011;22760;51.910;4.474;2022-08-11T16:48:21;4.75;;;1.60;;
36815;SDS011;22760;51.910;4.474;2022-08-11T16:50:52;5.05;;;1.70;;